sensor_id;sensor_type;location;lat;lon;timestamp;P1;durP1;ratioP1;P2;durP2;ratioP2
8574;SDS011;4325;42.520;27.448;2022-12-18T00:01:58;4.77;;;3.70;;
8574;SDS011;4325;42.520;27.448;2022-12-18T00:04:25;7.20;;;4.73;;
8574;SDS011;4325;42.520;27.448;2022-12-18T00:06:54;7.03;;;5.00;;
8574;SDS011;4325;42.520;27.448;2022-12-18T00:09:21;9.07;;;5.37;;
8574;SDS011;4325;42.520;27.448;2022-12-18T00:11:48;10.53;;;6.07;;
8574;SDS011;4325;42.520;27.448;2022-12-18T00:14:15;6.07;;;5.53;;
8574;SDS011;4325;42.520;27.448;2022-12-18T00:16:43;9.67;;;6.63;;
8574;SDS011;4325;42.520;27.448;2022-12-18T00:19:10;7.97;;;5.57;;
8574;SDS011;4325;42.520;27.448;2022-12-18T00:21:38;10.17;;;6.20;;
8574;SDS011;4325;42.520;27.448;2022-12-18T00:24:06;6.87;;;5.33;;
8574;SDS011;4325;42.520;27.448;2022-12-18T00:26:35;7.30;;;5.30;;
8574;SDS011;4325;42.520;27.448;2022-12-18T00:29:03;7.93;;;5.63;;
8574;SDS011;4325;42.520;27.448;2022-12-18T00:31:32;8.87;;;5.60;;
8574;SDS011;4325;42.520;27.448;2022-12-18T00:33:59;6.77;;;6.10;;
8574;SDS011;4325;42.520;27.448;2022-12-18T00:36:27;9.33;;;6.33;;
8574;SDS011;4325;42.520;27.448;2022-12-18T00:38:55;7.67;;;6.40;;
8574;SDS011;4325;42.520;27.448;2022-12-18T00:41:25;12.63;;;6.50;;
8574;SDS011;4325;42.520;27.448;2022-12-18T00:44:10;13.03;;;6.70;;
8574;SDS011;4325;42.520;27.448;2022-12-18T00:46:38;10.17;;;6.50;;
8574;SDS011;4325;42.520;27.448;2022-12-18T00:49:05;11.10;;;8.63;;
8574;SDS011;4325;42.520;27.448;2022-12-18T00:51:32;17.10;;;10.73;;
8574;SDS011;4325;42.520;27.448;2022-12-18T00:53:59;17.80;;;12.27;;
8574;SDS011;4325;42.520;27.448;2022-12-18T00:56:28;20.07;;;13.47;;
8574;SDS011;4325;42.520;27.448;2022-12-18T00:58:54;16.30;;;13.40;;
8574;SDS011;4325;42.520;27.448;2022-12-18T01:01:21;23.30;;;13.90;;
8574;SDS011;4325;42.520;27.448;2022-12-18T01:03:48;17.80;;;13.70;;
8574;SDS011;4325;42.520;27.448;2022-12-18T01:06:15;22.27;;;14.70;;
8574;SDS011;4325;42.520;27.448;2022-12-18T01:08:42;19.23;;;13.60;;
8574;SDS011;4325;42.520;27.448;2022-12-18T01:11:11;12.60;;;8.87;;
8574;SDS011;4325;42.520;27.448;2022-12-18T01:13:41;13.10;;;9.50;;
8574;SDS011;4325;42.520;27.448;2022-12-18T01:16:10;14.73;;;9.33;;
8574;SDS011;4325;42.520;27.448;2022-12-18T01:18:38;9.53;;;7.80;;
8574;SDS011;4325;42.520;27.448;2022-12-18T01:21:06;11.20;;;6.70;;
8574;SDS011;4325;42.520;27.448;2022-12-18T01:23:33;7.33;;;5.47;;
8574;SDS011;4325;42.520;27.448;2022-12-18T01:26:03;6.67;;;4.80;;
8574;SDS011;4325;42.520;27.448;2022-12-18T01:28:31;3.40;;;3.10;;
8574;SDS011;4325;42.520;27.448;2022-12-18T01:31:09;2.90;;;2.67;;
8574;SDS011;4325;42.520;27.448;2022-12-18T01:33:38;2.90;;;2.60;;
8574;SDS011;4325;42.520;27.448;2022-12-18T01:36:05;2.90;;;2.23;;
8574;SDS011;4325;42.520;27.448;2022-12-18T01:38:32;4.40;;;2.00;;
8574;SDS011;4325;42.520;27.448;2022-12-18T01:40:59;2.90;;;2.20;;
8574;SDS011;4325;42.520;27.448;2022-12-18T01:46:16;3.33;;;2.50;;
8574;SDS011;4325;42.520;27.448;2022-12-18T01:48:44;4.53;;;2.47;;
8574;SDS011;4325;42.520;27.448;2022-12-18T01:51:14;2.63;;;2.43;;
8574;SDS011;4325;42.520;27.448;2022-12-18T01:53:41;2.43;;;1.90;;
8574;SDS011;4325;42.520;27.448;2022-12-18T01:56:14;2.70;;;2.40;;
8574;SDS011;4325;42.520;27.448;2022-12-18T01:58:48;5.57;;;2.27;;
8574;SDS011;4325;42.520;27.448;2022-12-18T02:01:21;2.90;;;2.63;;
8574;SDS011;4325;42.520;27.448;2022-12-18T02:03:49;2.90;;;2.20;;
8574;SDS011;4325;42.520;27.448;2022-12-18T02:06:18;4.23;;;2.10;;
8574;SDS011;4325;42.520;27.448;2022-12-18T02:08:52;2.30;;;2.10;;
8574;SDS011;4325;42.520;27.448;2022-12-18T02:11:32;4.03;;;2.50;;
8574;SDS011;4325;42.520;27.448;2022-12-18T02:14:08;2.27;;;2.07;;
8574;SDS011;4325;42.520;27.448;2022-12-18T02:16:46;2.50;;;2.23;;
8574;SDS011;4325;42.520;27.448;2022-12-18T02:19:23;7.37;;;2.30;;
8574;SDS011;4325;42.520;27.448;2022-12-18T02:22:14;4.27;;;2.30;;
8574;SDS011;4325;42.520;27.448;2022-12-18T02:24:55;2.63;;;2.00;;
8574;SDS011;4325;42.520;27.448;2022-12-18T02:27:32;4.13;;;2.90;;
8574;SDS011;4325;42.520;27.448;2022-12-18T02:30:01;3.60;;;2.20;;
8574;SDS011;4325;42.520;27.448;2022-12-18T02:32:30;2.43;;;2.10;;
8574;SDS011;4325;42.520;27.448;2022-12-18T02:35:01;3.70;;;2.20;;
8574;SDS011;4325;42.520;27.448;2022-12-18T02:37:30;2.47;;;2.27;;
8574;SDS011;4325;42.520;27.448;2022-12-18T02:40:00;3.63;;;2.10;;
8574;SDS011;4325;42.520;27.448;2022-12-18T02:42:29;2.20;;;2.00;;
8574;SDS011;4325;42.520;27.448;2022-12-18T02:44:58;2.70;;;2.50;;
8574;SDS011;4325;42.520;27.448;2022-12-18T02:47:26;2.17;;;1.90;;
8574;SDS011;4325;42.520;27.448;2022-12-18T02:49:57;4.27;;;2.27;;
8574;SDS011;4325;42.520;27.448;2022-12-18T02:52:32;4.23;;;2.00;;
8574;SDS011;4325;42.520;27.448;2022-12-18T02:55:08;2.80;;;2.50;;
8574;SDS011;4325;42.520;27.448;2022-12-18T02:57:45;2.40;;;2.20;;
8574;SDS011;4325;42.520;27.448;2022-12-18T03:00:17;4.93;;;2.27;;
8574;SDS011;4325;42.520;27.448;2022-12-18T03:02:47;3.00;;;2.53;;
8574;SDS011;4325;42.520;27.448;2022-12-18T03:05:21;4.63;;;2.47;;
8574;SDS011;4325;42.520;27.448;2022-12-18T03:07:52;2.40;;;2.20;;
8574;SDS011;4325;42.520;27.448;2022-12-18T03:10:25;2.23;;;2.03;;
8574;SDS011;4325;42.520;27.448;2022-12-18T03:12:56;2.63;;;2.40;;
8574;SDS011;4325;42.520;27.448;2022-12-18T03:15:30;2.50;;;2.30;;
8574;SDS011;4325;42.520;27.448;2022-12-18T03:18:02;2.70;;;2.30;;
8574;SDS011;4325;42.520;27.448;2022-12-18T03:20:34;3.03;;;2.70;;
8574;SDS011;4325;42.520;27.448;2022-12-18T03:23:04;2.57;;;2.37;;
8574;SDS011;4325;42.520;27.448;2022-12-18T03:25:36;3.30;;;2.43;;
8574;SDS011;4325;42.520;27.448;2022-12-18T03:28:07;7.53;;;2.80;;
8574;SDS011;4325;42.520;27.448;2022-12-18T03:30:37;5.20;;;2.97;;
8574;SDS011;4325;42.520;27.448;2022-12-18T03:33:07;3.63;;;2.30;;
8574;SDS011;4325;42.520;27.448;2022-12-18T03:35:37;2.93;;;2.43;;
8574;SDS011;4325;42.520;27.448;2022-12-18T03:38:07;5.10;;;3.03;;
8574;SDS011;4325;42.520;27.448;2022-12-18T03:40:38;3.53;;;2.87;;
8574;SDS011;4325;42.520;27.448;2022-12-18T03:43:11;3.13;;;2.83;;
8574;SDS011;4325;42.520;27.448;2022-12-18T03:45:48;3.13;;;2.77;;
8574;SDS011;4325;42.520;27.448;2022-12-18T03:48:19;4.10;;;2.50;;
8574;SDS011;4325;42.520;27.448;2022-12-18T03:50:54;3.23;;;2.93;;
8574;SDS011;4325;42.520;27.448;2022-12-18T03:53:25;3.33;;;3.03;;
8574;SDS011;4325;42.520;27.448;2022-12-18T03:55:59;4.63;;;3.43;;
8574;SDS011;4325;42.520;27.448;2022-12-18T03:58:28;4.13;;;3.43;;
8574;SDS011;4325;42.520;27.448;2022-12-18T04:00:59;4.60;;;3.83;;
8574;SDS011;4325;42.520;27.448;2022-12-18T04:03:30;6.37;;;4.27;;
8574;SDS011;4325;42.520;27.448;2022-12-18T04:05:59;7.30;;;3.87;;
8574;SDS011;4325;42.520;27.448;2022-12-18T04:08:27;3.93;;;3.50;;
8574;SDS011;4325;42.520;27.448;2022-12-18T04:10:54;6.80;;;3.60;;
8574;SDS011;4325;42.520;27.448;2022-12-18T04:13:22;5.00;;;3.60;;
8574;SDS011;4325;42.520;27.448;2022-12-18T04:15:49;6.23;;;4.07;;
8574;SDS011;4325;42.520;27.448;2022-12-18T04:18:17;5.23;;;3.27;;
8574;SDS011;4325;42.520;27.448;2022-12-18T04:20:44;5.03;;;3.43;;
8574;SDS011;4325;42.520;27.448;2022-12-18T04:23:11;10.80;;;3.93;;
8574;SDS011;4325;42.520;27.448;2022-12-18T04:25:38;3.57;;;3.27;;
8574;SDS011;4325;42.520;27.448;2022-12-18T04:28:05;6.20;;;3.97;;
8574;SDS011;4325;42.520;27.448;2022-12-18T04:30:32;4.47;;;3.53;;
8574;SDS011;4325;42.520;27.448;2022-12-18T04:32:59;5.57;;;4.33;;
8574;SDS011;4325;42.520;27.448;2022-12-18T04:35:27;5.23;;;4.67;;
8574;SDS011;4325;42.520;27.448;2022-12-18T04:37:54;5.27;;;4.30;;
8574;SDS011;4325;42.520;27.448;2022-12-18T04:40:21;8.83;;;4.57;;
8574;SDS011;4325;42.520;27.448;2022-12-18T04:42:48;8.50;;;4.20;;
8574;SDS011;4325;42.520;27.448;2022-12-18T04:45:14;4.77;;;4.00;;
8574;SDS011;4325;42.520;27.448;2022-12-18T04:47:41;4.60;;;3.90;;
8574;SDS011;4325;42.520;27.448;2022-12-18T04:50:08;5.53;;;4.50;;
8574;SDS011;4325;42.520;27.448;2022-12-18T04:52:37;6.17;;;4.77;;
8574;SDS011;4325;42.520;27.448;2022-12-18T04:55:04;9.43;;;4.87;;
8574;SDS011;4325;42.520;27.448;2022-12-18T04:57:31;8.47;;;5.50;;
8574;SDS011;4325;42.520;27.448;2022-12-18T04:59:58;8.30;;;5.40;;
8574;SDS011;4325;42.520;27.448;2022-12-18T05:02:25;7.97;;;6.30;;
8574;SDS011;4325;42.520;27.448;2022-12-18T05:04:51;6.23;;;4.97;;
8574;SDS011;4325;42.520;27.448;2022-12-18T05:07:18;11.00;;;8.40;;
8574;SDS011;4325;42.520;27.448;2022-12-18T05:09:47;7.30;;;6.00;;
8574;SDS011;4325;42.520;27.448;2022-12-18T05:12:13;8.63;;;6.80;;
8574;SDS011;4325;42.520;27.448;2022-12-18T05:14:40;9.17;;;6.27;;
8574;SDS011;4325;42.520;27.448;2022-12-18T05:17:07;8.30;;;5.13;;
8574;SDS011;4325;42.520;27.448;2022-12-18T05:19:34;7.53;;;5.03;;
8574;SDS011;4325;42.520;27.448;2022-12-18T05:22:01;8.97;;;4.83;;
8574;SDS011;4325;42.520;27.448;2022-12-18T05:24:28;5.87;;;4.50;;
8574;SDS011;4325;42.520;27.448;2022-12-18T05:26:56;5.43;;;3.70;;
8574;SDS011;4325;42.520;27.448;2022-12-18T05:29:23;13.27;;;5.93;;
8574;SDS011;4325;42.520;27.448;2022-12-18T05:31:50;6.20;;;4.00;;
8574;SDS011;4325;42.520;27.448;2022-12-18T05:34:16;3.80;;;3.50;;
8574;SDS011;4325;42.520;27.448;2022-12-18T05:36:43;5.13;;;3.57;;
8574;SDS011;4325;42.520;27.448;2022-12-18T05:39:10;7.23;;;4.53;;
8574;SDS011;4325;42.520;27.448;2022-12-18T05:41:37;5.43;;;3.40;;
8574;SDS011;4325;42.520;27.448;2022-12-18T05:44:05;6.83;;;5.80;;
8574;SDS011;4325;42.520;27.448;2022-12-18T05:46:32;6.27;;;4.10;;
8574;SDS011;4325;42.520;27.448;2022-12-18T05:48:59;5.63;;;4.03;;
8574;SDS011;4325;42.520;27.448;2022-12-18T05:51:27;4.80;;;3.40;;
8574;SDS011;4325;42.520;27.448;2022-12-18T05:53:54;5.67;;;4.67;;
8574;SDS011;4325;42.520;27.448;2022-12-18T05:56:21;5.37;;;4.20;;
8574;SDS011;4325;42.520;27.448;2022-12-18T05:58:50;5.47;;;4.47;;
8574;SDS011;4325;42.520;27.448;2022-12-18T06:01:20;6.53;;;4.63;;
8574;SDS011;4325;42.520;27.448;2022-12-18T06:03:50;5.37;;;3.83;;
8574;SDS011;4325;42.520;27.448;2022-12-18T06:06:18;6.03;;;4.00;;
8574;SDS011;4325;42.520;27.448;2022-12-18T06:08:46;4.20;;;3.60;;
8574;SDS011;4325;42.520;27.448;2022-12-18T06:11:15;3.30;;;3.00;;
8574;SDS011;4325;42.520;27.448;2022-12-18T06:13:43;3.73;;;3.00;;
8574;SDS011;4325;42.520;27.448;2022-12-18T06:16:10;3.70;;;3.30;;
8574;SDS011;4325;42.520;27.448;2022-12-18T06:18:38;4.97;;;3.27;;
8574;SDS011;4325;42.520;27.448;2022-12-18T06:21:05;3.30;;;3.00;;
8574;SDS011;4325;42.520;27.448;2022-12-18T06:23:32;4.87;;;3.43;;
8574;SDS011;4325;42.520;27.448;2022-12-18T06:26:02;3.50;;;3.20;;
8574;SDS011;4325;42.520;27.448;2022-12-18T06:28:30;4.40;;;3.57;;
8574;SDS011;4325;42.520;27.448;2022-12-18T06:30:57;3.60;;;3.23;;
8574;SDS011;4325;42.520;27.448;2022-12-18T06:33:25;4.37;;;3.70;;
8574;SDS011;4325;42.520;27.448;2022-12-18T06:35:54;4.33;;;3.93;;
8574;SDS011;4325;42.520;27.448;2022-12-18T06:38:25;5.03;;;4.27;;
8574;SDS011;4325;42.520;27.448;2022-12-18T06:40:53;4.80;;;4.40;;
8574;SDS011;4325;42.520;27.448;2022-12-18T06:43:19;8.10;;;5.27;;
8574;SDS011;4325;42.520;27.448;2022-12-18T06:45:46;5.90;;;4.67;;
8574;SDS011;4325;42.520;27.448;2022-12-18T06:48:17;6.80;;;5.00;;
8574;SDS011;4325;42.520;27.448;2022-12-18T06:50:44;6.70;;;4.70;;
8574;SDS011;4325;42.520;27.448;2022-12-18T06:53:13;8.13;;;4.70;;
8574;SDS011;4325;42.520;27.448;2022-12-18T06:55:40;5.30;;;4.80;;
8574;SDS011;4325;42.520;27.448;2022-12-18T06:58:06;5.37;;;4.63;;
8574;SDS011;4325;42.520;27.448;2022-12-18T07:00:33;6.10;;;5.17;;
8574;SDS011;4325;42.520;27.448;2022-12-18T07:03:00;6.40;;;5.13;;
8574;SDS011;4325;42.520;27.448;2022-12-18T07:05:27;8.10;;;5.90;;
8574;SDS011;4325;42.520;27.448;2022-12-18T07:07:54;7.57;;;5.67;;
8574;SDS011;4325;42.520;27.448;2022-12-18T07:10:22;7.97;;;6.07;;
8574;SDS011;4325;42.520;27.448;2022-12-18T07:12:49;8.03;;;6.63;;
8574;SDS011;4325;42.520;27.448;2022-12-18T07:15:16;8.97;;;6.67;;
8574;SDS011;4325;42.520;27.448;2022-12-18T07:17:43;8.60;;;7.47;;
8574;SDS011;4325;42.520;27.448;2022-12-18T07:20:10;10.90;;;7.97;;
8574;SDS011;4325;42.520;27.448;2022-12-18T07:22:37;9.10;;;7.60;;
8574;SDS011;4325;42.520;27.448;2022-12-18T07:25:04;11.67;;;8.10;;
8574;SDS011;4325;42.520;27.448;2022-12-18T07:27:33;11.00;;;7.87;;
8574;SDS011;4325;42.520;27.448;2022-12-18T07:30:00;12.83;;;7.83;;
8574;SDS011;4325;42.520;27.448;2022-12-18T07:32:27;9.03;;;6.83;;
8574;SDS011;4325;42.520;27.448;2022-12-18T07:34:54;10.83;;;7.90;;
8574;SDS011;4325;42.520;27.448;2022-12-18T07:37:21;8.83;;;7.00;;
8574;SDS011;4325;42.520;27.448;2022-12-18T07:39:48;9.77;;;7.83;;
8574;SDS011;4325;42.520;27.448;2022-12-18T07:42:14;12.23;;;7.50;;
8574;SDS011;4325;42.520;27.448;2022-12-18T07:44:58;11.23;;;8.57;;
8574;SDS011;4325;42.520;27.448;2022-12-18T07:47:25;9.27;;;7.23;;
8574;SDS011;4325;42.520;27.448;2022-12-18T07:49:52;9.47;;;7.60;;
8574;SDS011;4325;42.520;27.448;2022-12-18T07:52:20;10.27;;;7.97;;
8574;SDS011;4325;42.520;27.448;2022-12-18T07:54:46;19.67;;;8.23;;
8574;SDS011;4325;42.520;27.448;2022-12-18T07:57:14;11.07;;;8.53;;
8574;SDS011;4325;42.520;27.448;2022-12-18T07:59:41;10.80;;;8.10;;
8574;SDS011;4325;42.520;27.448;2022-12-18T08:02:09;11.83;;;8.33;;
8574;SDS011;4325;42.520;27.448;2022-12-18T08:04:36;10.63;;;8.43;;
8574;SDS011;4325;42.520;27.448;2022-12-18T08:07:03;13.17;;;9.40;;
8574;SDS011;4325;42.520;27.448;2022-12-18T08:09:30;12.80;;;9.90;;
8574;SDS011;4325;42.520;27.448;2022-12-18T08:11:57;11.03;;;9.07;;
8574;SDS011;4325;42.520;27.448;2022-12-18T08:14:24;12.30;;;9.67;;
8574;SDS011;4325;42.520;27.448;2022-12-18T08:16:51;12.93;;;9.77;;
8574;SDS011;4325;42.520;27.448;2022-12-18T08:19:19;12.77;;;8.90;;
8574;SDS011;4325;42.520;27.448;2022-12-18T08:21:46;11.30;;;9.07;;
8574;SDS011;4325;42.520;27.448;2022-12-18T08:24:13;10.60;;;8.80;;
8574;SDS011;4325;42.520;27.448;2022-12-18T08:26:40;13.50;;;9.83;;
8574;SDS011;4325;42.520;27.448;2022-12-18T08:29:06;11.43;;;8.53;;
8574;SDS011;4325;42.520;27.448;2022-12-18T08:31:35;12.37;;;10.17;;
8574;SDS011;4325;42.520;27.448;2022-12-18T08:34:01;13.07;;;9.87;;
8574;SDS011;4325;42.520;27.448;2022-12-18T08:36:30;15.57;;;10.67;;
8574;SDS011;4325;42.520;27.448;2022-12-18T08:38:57;12.87;;;10.40;;
8574;SDS011;4325;42.520;27.448;2022-12-18T08:41:23;11.67;;;9.67;;
8574;SDS011;4325;42.520;27.448;2022-12-18T08:43:50;13.17;;;9.70;;
8574;SDS011;4325;42.520;27.448;2022-12-18T08:46:36;13.73;;;9.80;;
8574;SDS011;4325;42.520;27.448;2022-12-18T08:49:04;13.10;;;10.10;;
8574;SDS011;4325;42.520;27.448;2022-12-18T08:51:32;12.93;;;9.97;;
8574;SDS011;4325;42.520;27.448;2022-12-18T08:54:00;13.90;;;9.93;;
8574;SDS011;4325;42.520;27.448;2022-12-18T08:56:28;13.47;;;9.60;;
8574;SDS011;4325;42.520;27.448;2022-12-18T08:58:56;18.23;;;10.77;;
8574;SDS011;4325;42.520;27.448;2022-12-18T09:01:23;12.37;;;10.10;;
8574;SDS011;4325;42.520;27.448;2022-12-18T09:03:50;13.20;;;9.97;;
8574;SDS011;4325;42.520;27.448;2022-12-18T09:06:17;13.47;;;10.07;;
8574;SDS011;4325;42.520;27.448;2022-12-18T09:08:47;14.57;;;10.00;;
8574;SDS011;4325;42.520;27.448;2022-12-18T09:11:15;14.13;;;10.87;;
8574;SDS011;4325;42.520;27.448;2022-12-18T09:13:47;13.33;;;9.53;;
8574;SDS011;4325;42.520;27.448;2022-12-18T09:16:14;15.97;;;10.97;;
8574;SDS011;4325;42.520;27.448;2022-12-18T09:18:41;15.73;;;10.70;;
8574;SDS011;4325;42.520;27.448;2022-12-18T09:21:08;13.83;;;10.10;;
8574;SDS011;4325;42.520;27.448;2022-12-18T09:23:36;14.70;;;10.70;;
8574;SDS011;4325;42.520;27.448;2022-12-18T09:26:05;15.80;;;9.67;;
8574;SDS011;4325;42.520;27.448;2022-12-18T09:28:32;14.03;;;10.70;;
8574;SDS011;4325;42.520;27.448;2022-12-18T09:31:02;17.47;;;11.67;;
8574;SDS011;4325;42.520;27.448;2022-12-18T09:33:31;13.77;;;10.27;;
8574;SDS011;4325;42.520;27.448;2022-12-18T09:35:57;12.50;;;9.93;;
8574;SDS011;4325;42.520;27.448;2022-12-18T09:38:27;13.27;;;10.40;;
8574;SDS011;4325;42.520;27.448;2022-12-18T09:40:56;15.60;;;10.33;;
8574;SDS011;4325;42.520;27.448;2022-12-18T09:43:29;13.70;;;10.10;;
8574;SDS011;4325;42.520;27.448;2022-12-18T09:46:03;16.20;;;10.27;;
8574;SDS011;4325;42.520;27.448;2022-12-18T09:48:38;13.27;;;9.77;;
8574;SDS011;4325;42.520;27.448;2022-12-18T09:51:10;15.27;;;10.60;;
8574;SDS011;4325;42.520;27.448;2022-12-18T09:53:41;17.13;;;10.67;;
8574;SDS011;4325;42.520;27.448;2022-12-18T09:56:12;17.10;;;10.00;;
8574;SDS011;4325;42.520;27.448;2022-12-18T09:58:46;15.53;;;10.87;;
8574;SDS011;4325;42.520;27.448;2022-12-18T10:01:20;19.37;;;10.07;;
8574;SDS011;4325;42.520;27.448;2022-12-18T10:03:49;13.10;;;9.90;;
8574;SDS011;4325;42.520;27.448;2022-12-18T10:06:18;14.50;;;10.73;;
8574;SDS011;4325;42.520;27.448;2022-12-18T10:08:51;16.57;;;10.50;;
8574;SDS011;4325;42.520;27.448;2022-12-18T10:11:27;12.77;;;9.87;;
8574;SDS011;4325;42.520;27.448;2022-12-18T10:14:04;16.13;;;11.87;;
8574;SDS011;4325;42.520;27.448;2022-12-18T10:16:37;16.20;;;10.70;;
8574;SDS011;4325;42.520;27.448;2022-12-18T10:19:16;14.77;;;9.93;;
8574;SDS011;4325;42.520;27.448;2022-12-18T10:21:51;14.37;;;11.27;;
8574;SDS011;4325;42.520;27.448;2022-12-18T10:24:29;16.23;;;11.27;;
8574;SDS011;4325;42.520;27.448;2022-12-18T10:27:07;15.20;;;11.37;;
8574;SDS011;4325;42.520;27.448;2022-12-18T10:29:40;16.10;;;11.00;;
8574;SDS011;4325;42.520;27.448;2022-12-18T10:32:09;13.77;;;10.70;;
8574;SDS011;4325;42.520;27.448;2022-12-18T10:34:43;19.83;;;11.57;;
8574;SDS011;4325;42.520;27.448;2022-12-18T10:37:12;18.37;;;12.47;;
8574;SDS011;4325;42.520;27.448;2022-12-18T10:39:43;20.07;;;12.67;;
8574;SDS011;4325;42.520;27.448;2022-12-18T10:42:11;18.03;;;12.77;;
8574;SDS011;4325;42.520;27.448;2022-12-18T10:44:45;17.03;;;12.43;;
8574;SDS011;4325;42.520;27.448;2022-12-18T10:47:12;17.80;;;13.03;;
8574;SDS011;4325;42.520;27.448;2022-12-18T10:49:47;16.60;;;12.50;;
8574;SDS011;4325;42.520;27.448;2022-12-18T10:52:17;18.07;;;13.07;;
8574;SDS011;4325;42.520;27.448;2022-12-18T10:54:47;16.80;;;12.77;;
8574;SDS011;4325;42.520;27.448;2022-12-18T10:57:17;18.40;;;13.57;;
8574;SDS011;4325;42.520;27.448;2022-12-18T10:59:58;17.90;;;12.77;;
8574;SDS011;4325;42.520;27.448;2022-12-18T11:02:45;17.33;;;12.97;;
8574;SDS011;4325;42.520;27.448;2022-12-18T11:05:22;18.63;;;13.53;;
8574;SDS011;4325;42.520;27.448;2022-12-18T11:07:51;20.43;;;13.47;;
8574;SDS011;4325;42.520;27.448;2022-12-18T11:10:19;21.73;;;14.47;;
8574;SDS011;4325;42.520;27.448;2022-12-18T11:12:48;19.83;;;14.77;;
8574;SDS011;4325;42.520;27.448;2022-12-18T11:15:19;18.67;;;13.53;;
8574;SDS011;4325;42.520;27.448;2022-12-18T11:17:47;18.73;;;14.07;;
8574;SDS011;4325;42.520;27.448;2022-12-18T11:20:24;16.70;;;13.23;;
8574;SDS011;4325;42.520;27.448;2022-12-18T11:22:58;20.23;;;14.33;;
8574;SDS011;4325;42.520;27.448;2022-12-18T11:25:27;22.87;;;14.10;;
8574;SDS011;4325;42.520;27.448;2022-12-18T11:27:55;23.33;;;14.17;;
8574;SDS011;4325;42.520;27.448;2022-12-18T11:30:25;19.20;;;14.50;;
8574;SDS011;4325;42.520;27.448;2022-12-18T11:32:58;17.87;;;14.07;;
8574;SDS011;4325;42.520;27.448;2022-12-18T11:35:38;18.00;;;14.00;;
8574;SDS011;4325;42.520;27.448;2022-12-18T11:38:12;22.07;;;15.70;;
8574;SDS011;4325;42.520;27.448;2022-12-18T11:40:50;18.80;;;13.80;;
8574;SDS011;4325;42.520;27.448;2022-12-18T11:43:23;18.27;;;14.13;;
8574;SDS011;4325;42.520;27.448;2022-12-18T11:45:55;20.17;;;15.00;;
8574;SDS011;4325;42.520;27.448;2022-12-18T11:48:27;21.50;;;15.10;;
8574;SDS011;4325;42.520;27.448;2022-12-18T11:50:57;20.83;;;14.80;;
8574;SDS011;4325;42.520;27.448;2022-12-18T11:53:26;20.50;;;14.67;;
8574;SDS011;4325;42.520;27.448;2022-12-18T11:55:59;18.47;;;13.23;;
8574;SDS011;4325;42.520;27.448;2022-12-18T11:58:46;21.23;;;15.63;;
8574;SDS011;4325;42.520;27.448;2022-12-18T12:01:21;19.37;;;14.33;;
8574;SDS011;4325;42.520;27.448;2022-12-18T12:04:05;19.90;;;14.27;;
8574;SDS011;4325;42.520;27.448;2022-12-18T12:06:46;19.80;;;14.33;;
8574;SDS011;4325;42.520;27.448;2022-12-18T12:09:22;20.87;;;14.60;;
8574;SDS011;4325;42.520;27.448;2022-12-18T12:11:58;18.10;;;14.40;;
8574;SDS011;4325;42.520;27.448;2022-12-18T12:14:40;21.47;;;15.33;;
8574;SDS011;4325;42.520;27.448;2022-12-18T12:17:20;21.67;;;14.30;;
8574;SDS011;4325;42.520;27.448;2022-12-18T12:19:56;20.97;;;14.73;;
8574;SDS011;4325;42.520;27.448;2022-12-18T12:22:35;20.27;;;15.00;;
8574;SDS011;4325;42.520;27.448;2022-12-18T12:25:18;21.30;;;15.27;;
8574;SDS011;4325;42.520;27.448;2022-12-18T12:27:57;20.40;;;15.20;;
8574;SDS011;4325;42.520;27.448;2022-12-18T12:30:39;24.20;;;14.93;;
8574;SDS011;4325;42.520;27.448;2022-12-18T12:33:22;21.30;;;15.60;;
8574;SDS011;4325;42.520;27.448;2022-12-18T12:36:01;23.07;;;15.80;;
8574;SDS011;4325;42.520;27.448;2022-12-18T12:38:35;23.40;;;15.80;;
8574;SDS011;4325;42.520;27.448;2022-12-18T12:41:09;22.90;;;16.07;;
8574;SDS011;4325;42.520;27.448;2022-12-18T12:44:00;24.30;;;16.70;;
8574;SDS011;4325;42.520;27.448;2022-12-18T12:46:29;24.80;;;17.17;;
8574;SDS011;4325;42.520;27.448;2022-12-18T12:49:02;23.90;;;16.37;;
8574;SDS011;4325;42.520;27.448;2022-12-18T12:51:34;21.87;;;14.60;;
8574;SDS011;4325;42.520;27.448;2022-12-18T12:54:03;23.00;;;15.77;;
8574;SDS011;4325;42.520;27.448;2022-12-18T12:56:36;24.07;;;17.63;;
8574;SDS011;4325;42.520;27.448;2022-12-18T12:59:11;24.13;;;16.50;;
8574;SDS011;4325;42.520;27.448;2022-12-18T13:01:46;23.90;;;16.60;;
8574;SDS011;4325;42.520;27.448;2022-12-18T13:04:21;27.47;;;17.30;;
8574;SDS011;4325;42.520;27.448;2022-12-18T13:06:58;26.47;;;16.73;;
8574;SDS011;4325;42.520;27.448;2022-12-18T13:09:29;25.50;;;17.53;;
8574;SDS011;4325;42.520;27.448;2022-12-18T13:12:01;24.70;;;17.43;;
8574;SDS011;4325;42.520;27.448;2022-12-18T13:14:46;26.47;;;18.57;;
8574;SDS011;4325;42.520;27.448;2022-12-18T13:17:14;26.70;;;17.60;;
8574;SDS011;4325;42.520;27.448;2022-12-18T13:19:43;28.07;;;19.00;;
8574;SDS011;4325;42.520;27.448;2022-12-18T13:22:20;23.10;;;16.90;;
8574;SDS011;4325;42.520;27.448;2022-12-18T13:24:48;21.73;;;17.23;;
8574;SDS011;4325;42.520;27.448;2022-12-18T13:36:14;22.77;;;16.90;;
8574;SDS011;4325;42.520;27.448;2022-12-18T13:41:51;26.30;;;17.27;;
8574;SDS011;4325;42.520;27.448;2022-12-18T13:44:24;23.03;;;17.97;;
8574;SDS011;4325;42.520;27.448;2022-12-18T13:46:57;25.07;;;17.37;;
8574;SDS011;4325;42.520;27.448;2022-12-18T13:49:25;26.87;;;18.20;;
8574;SDS011;4325;42.520;27.448;2022-12-18T13:51:59;30.23;;;19.60;;
8574;SDS011;4325;42.520;27.448;2022-12-18T13:54:28;26.50;;;19.37;;
8574;SDS011;4325;42.520;27.448;2022-12-18T13:56:59;32.10;;;20.50;;
8574;SDS011;4325;42.520;27.448;2022-12-18T13:59:32;29.63;;;19.17;;
8574;SDS011;4325;42.520;27.448;2022-12-18T14:02:00;28.47;;;20.10;;
8574;SDS011;4325;42.520;27.448;2022-12-18T14:04:38;30.13;;;18.57;;
8574;SDS011;4325;42.520;27.448;2022-12-18T14:07:07;26.90;;;17.90;;
8574;SDS011;4325;42.520;27.448;2022-12-18T14:09:40;24.67;;;17.63;;
8574;SDS011;4325;42.520;27.448;2022-12-18T14:12:14;26.93;;;18.63;;
8574;SDS011;4325;42.520;27.448;2022-12-18T14:14:59;26.87;;;18.43;;
8574;SDS011;4325;42.520;27.448;2022-12-18T14:17:27;29.17;;;17.93;;
8574;SDS011;4325;42.520;27.448;2022-12-18T14:19:53;26.53;;;17.53;;
8574;SDS011;4325;42.520;27.448;2022-12-18T14:22:23;26.43;;;18.70;;
8574;SDS011;4325;42.520;27.448;2022-12-18T14:27:42;29.37;;;19.97;;
8574;SDS011;4325;42.520;27.448;2022-12-18T14:33:02;25.50;;;18.37;;
8574;SDS011;4325;42.520;27.448;2022-12-18T14:35:30;28.33;;;19.07;;
8574;SDS011;4325;42.520;27.448;2022-12-18T14:38:10;29.97;;;19.27;;
8574;SDS011;4325;42.520;27.448;2022-12-18T14:40:45;27.33;;;19.10;;
8574;SDS011;4325;42.520;27.448;2022-12-18T14:43:12;24.37;;;17.60;;
8574;SDS011;4325;42.520;27.448;2022-12-18T14:45:40;29.23;;;18.20;;
8574;SDS011;4325;42.520;27.448;2022-12-18T14:48:09;26.13;;;18.30;;
8574;SDS011;4325;42.520;27.448;2022-12-18T14:50:40;25.10;;;18.20;;
8574;SDS011;4325;42.520;27.448;2022-12-18T14:53:18;25.53;;;18.50;;
8574;SDS011;4325;42.520;27.448;2022-12-18T14:55:46;27.80;;;18.73;;
8574;SDS011;4325;42.520;27.448;2022-12-18T14:58:15;25.17;;;18.50;;
8574;SDS011;4325;42.520;27.448;2022-12-18T15:00:44;26.73;;;19.07;;
8574;SDS011;4325;42.520;27.448;2022-12-18T15:03:12;26.30;;;19.77;;
8574;SDS011;4325;42.520;27.448;2022-12-18T15:05:44;29.80;;;20.17;;
8574;SDS011;4325;42.520;27.448;2022-12-18T15:08:27;27.53;;;19.67;;
8574;SDS011;4325;42.520;27.448;2022-12-18T15:10:56;26.77;;;19.43;;
8574;SDS011;4325;42.520;27.448;2022-12-18T15:13:23;28.57;;;19.80;;
8574;SDS011;4325;42.520;27.448;2022-12-18T15:15:51;28.10;;;19.83;;
8574;SDS011;4325;42.520;27.448;2022-12-18T15:18:20;29.70;;;20.17;;
8574;SDS011;4325;42.520;27.448;2022-12-18T15:20:51;31.80;;;21.30;;
8574;SDS011;4325;42.520;27.448;2022-12-18T15:23:20;27.43;;;19.97;;
8574;SDS011;4325;42.520;27.448;2022-12-18T15:25:54;29.93;;;20.90;;
8574;SDS011;4325;42.520;27.448;2022-12-18T15:28:23;30.33;;;21.60;;